sensor_id;sensor_type;location;lat;lon;timestamp;P1;durP1;ratioP1;P2;durP2;ratioP2
68398;SDS011;56258;52.196;13.868;2023-02-01T00:01:09;4.28;;;0.50;;
68398;SDS011;56258;52.196;13.868;2023-02-01T00:03:35;4.18;;;0.40;;
68398;SDS011;56258;52.196;13.868;2023-02-01T00:06:03;4.72;;;0.38;;
68398;SDS011;56258;52.196;13.868;2023-02-01T00:08:30;4.60;;;0.40;;
68398;SDS011;56258;52.196;13.868;2023-02-01T00:11:00;3.50;;;0.32;;
68398;SDS011;56258;52.196;13.868;2023-02-01T00:13:29;4.82;;;0.60;;
68398;SDS011;56258;52.196;13.868;2023-02-01T00:16:10;4.07;;;0.30;;
68398;SDS011;56258;52.196;13.868;2023-02-01T00:18:39;3.33;;;0.40;;
68398;SDS011;56258;52.196;13.868;2023-02-01T00:21:06;4.87;;;0.40;;
68398;SDS011;56258;52.196;13.868;2023-02-01T00:23:35;3.88;;;0.40;;
68398;SDS011;56258;52.196;13.868;2023-02-01T00:26:04;4.07;;;0.45;;
68398;SDS011;56258;52.196;13.868;2023-02-01T00:28:32;4.47;;;0.50;;
68398;SDS011;56258;52.196;13.868;2023-02-01T00:31:00;5.47;;;0.50;;
68398;SDS011;56258;52.196;13.868;2023-02-01T00:33:30;4.50;;;0.40;;
68398;SDS011;56258;52.196;13.868;2023-02-01T00:36:02;4.47;;;0.40;;
68398;SDS011;56258;52.196;13.868;2023-02-01T00:38:31;5.03;;;0.40;;
68398;SDS011;56258;52.196;13.868;2023-02-01T00:41:02;4.68;;;0.40;;
68398;SDS011;56258;52.196;13.868;2023-02-01T00:43:31;4.40;;;0.50;;
68398;SDS011;56258;52.196;13.868;2023-02-01T00:45:58;3.47;;;0.40;;
68398;SDS011;56258;52.196;13.868;2023-02-01T00:48:25;5.40;;;0.63;;
68398;SDS011;56258;52.196;13.868;2023-02-01T00:50:52;4.00;;;0.40;;
68398;SDS011;56258;52.196;13.868;2023-02-01T00:53:19;3.65;;;0.30;;
68398;SDS011;56258;52.196;13.868;2023-02-01T00:55:48;3.72;;;0.50;;
68398;SDS011;56258;52.196;13.868;2023-02-01T01:01:31;3.40;;;0.30;;
68398;SDS011;56258;52.196;13.868;2023-02-01T01:03:59;4.40;;;0.47;;
68398;SDS011;56258;52.196;13.868;2023-02-01T01:06:27;5.13;;;0.45;;
68398;SDS011;56258;52.196;13.868;2023-02-01T01:08:58;3.72;;;0.40;;
68398;SDS011;56258;52.196;13.868;2023-02-01T01:11:27;5.13;;;0.50;;
68398;SDS011;56258;52.196;13.868;2023-02-01T01:13:56;4.65;;;0.50;;
68398;SDS011;56258;52.196;13.868;2023-02-01T01:16:24;5.38;;;0.50;;
68398;SDS011;56258;52.196;13.868;2023-02-01T01:18:52;5.45;;;0.50;;
68398;SDS011;56258;52.196;13.868;2023-02-01T01:21:20;5.18;;;0.50;;
68398;SDS011;56258;52.196;13.868;2023-02-01T01:23:48;4.60;;;0.40;;
68398;SDS011;56258;52.196;13.868;2023-02-01T01:26:16;4.03;;;0.40;;
68398;SDS011;56258;52.196;13.868;2023-02-01T01:28:44;4.35;;;0.50;;
68398;SDS011;56258;52.196;13.868;2023-02-01T01:31:12;5.05;;;0.45;;
68398;SDS011;56258;52.196;13.868;2023-02-01T01:33:40;5.13;;;0.40;;
68398;SDS011;56258;52.196;13.868;2023-02-01T01:36:10;3.50;;;0.40;;
68398;SDS011;56258;52.196;13.868;2023-02-01T01:38:39;4.90;;;0.50;;
68398;SDS011;56258;52.196;13.868;2023-02-01T01:41:07;4.25;;;0.40;;
68398;SDS011;56258;52.196;13.868;2023-02-01T01:43:51;4.45;;;0.40;;
68398;SDS011;56258;52.196;13.868;2023-02-01T01:46:27;4.25;;;0.40;;
68398;SDS011;56258;52.196;13.868;2023-02-01T01:48:57;4.23;;;0.40;;
68398;SDS011;56258;52.196;13.868;2023-02-01T01:51:45;5.05;;;0.50;;
68398;SDS011;56258;52.196;13.868;2023-02-01T01:54:17;5.22;;;0.40;;
68398;SDS011;56258;52.196;13.868;2023-02-01T01:56:49;4.40;;;0.50;;
68398;SDS011;56258;52.196;13.868;2023-02-01T01:59:19;4.53;;;0.50;;
68398;SDS011;56258;52.196;13.868;2023-02-01T02:01:48;3.97;;;0.30;;
68398;SDS011;56258;52.196;13.868;2023-02-01T02:04:15;4.55;;;0.40;;
68398;SDS011;56258;52.196;13.868;2023-02-01T02:06:54;4.38;;;0.57;;
68398;SDS011;56258;52.196;13.868;2023-02-01T02:09:26;4.50;;;0.47;;
68398;SDS011;56258;52.196;13.868;2023-02-01T02:11:53;3.80;;;0.30;;
68398;SDS011;56258;52.196;13.868;2023-02-01T02:14:20;4.30;;;0.60;;
68398;SDS011;56258;52.196;13.868;2023-02-01T02:31:28;4.32;;;0.40;;
68398;SDS011;56258;52.196;13.868;2023-02-01T02:33:42;4.80;;;0.40;;
68398;SDS011;56258;52.196;13.868;2023-02-01T02:45:30;5.43;;;0.57;;
68398;SDS011;56258;52.196;13.868;2023-02-01T02:48:28;5.20;;;0.60;;
68398;SDS011;56258;52.196;13.868;2023-02-01T02:51:07;4.97;;;0.60;;
68398;SDS011;56258;52.196;13.868;2023-02-01T02:57:02;3.93;;;0.30;;
68398;SDS011;56258;52.196;13.868;2023-02-01T02:59:50;3.75;;;0.30;;
68398;SDS011;56258;52.196;13.868;2023-02-01T03:02:37;5.20;;;0.40;;
68398;SDS011;56258;52.196;13.868;2023-02-01T03:05:23;3.25;;;0.40;;
68398;SDS011;56258;52.196;13.868;2023-02-01T03:13:17;5.38;;;0.47;;
68398;SDS011;56258;52.196;13.868;2023-02-01T03:18:50;4.55;;;0.43;;
68398;SDS011;56258;52.196;13.868;2023-02-01T03:21:40;3.92;;;0.40;;
68398;SDS011;56258;52.196;13.868;2023-02-01T03:24:12;4.77;;;0.40;;
68398;SDS011;56258;52.196;13.868;2023-02-01T03:26:44;4.93;;;0.40;;
68398;SDS011;56258;52.196;13.868;2023-02-01T03:29:19;3.33;;;0.38;;
68398;SDS011;56258;52.196;13.868;2023-02-01T03:31:50;4.93;;;0.40;;
68398;SDS011;56258;52.196;13.868;2023-02-01T03:34:16;4.00;;;0.40;;
68398;SDS011;56258;52.196;13.868;2023-02-01T03:36:46;4.60;;;0.40;;
68398;SDS011;56258;52.196;13.868;2023-02-01T03:42:06;4.35;;;0.50;;
68398;SDS011;56258;52.196;13.868;2023-02-01T03:44:40;4.70;;;0.50;;
68398;SDS011;56258;52.196;13.868;2023-02-01T03:47:17;3.40;;;0.40;;
68398;SDS011;56258;52.196;13.868;2023-02-01T03:49:52;3.53;;;0.40;;
68398;SDS011;56258;52.196;13.868;2023-02-01T03:52:23;3.33;;;0.30;;
68398;SDS011;56258;52.196;13.868;2023-02-01T03:54:57;4.60;;;0.40;;
68398;SDS011;56258;52.196;13.868;2023-02-01T03:57:37;4.28;;;0.40;;
68398;SDS011;56258;52.196;13.868;2023-02-01T04:00:17;4.22;;;0.40;;
68398;SDS011;56258;52.196;13.868;2023-02-01T04:02:50;3.97;;;0.30;;
68398;SDS011;56258;52.196;13.868;2023-02-01T04:05:18;4.78;;;0.30;;
68398;SDS011;56258;52.196;13.868;2023-02-01T04:07:45;6.25;;;0.55;;
68398;SDS011;56258;52.196;13.868;2023-02-01T04:10:12;5.63;;;0.32;;
68398;SDS011;56258;52.196;13.868;2023-02-01T04:12:39;5.80;;;0.50;;
68398;SDS011;56258;52.196;13.868;2023-02-01T04:15:07;4.53;;;0.30;;
68398;SDS011;56258;52.196;13.868;2023-02-01T04:17:34;4.75;;;0.52;;
68398;SDS011;56258;52.196;13.868;2023-02-01T04:20:01;5.97;;;0.50;;
68398;SDS011;56258;52.196;13.868;2023-02-01T04:22:27;4.25;;;0.45;;
68398;SDS011;56258;52.196;13.868;2023-02-01T04:24:54;4.65;;;0.40;;
68398;SDS011;56258;52.196;13.868;2023-02-01T04:27:21;4.43;;;0.40;;
68398;SDS011;56258;52.196;13.868;2023-02-01T04:29:48;5.53;;;0.30;;
68398;SDS011;56258;52.196;13.868;2023-02-01T04:32:17;5.28;;;0.30;;
68398;SDS011;56258;52.196;13.868;2023-02-01T04:34:45;4.55;;;0.50;;
68398;SDS011;56258;52.196;13.868;2023-02-01T04:37:12;5.28;;;0.40;;
68398;SDS011;56258;52.196;13.868;2023-02-01T04:39:39;3.70;;;0.30;;
68398;SDS011;56258;52.196;13.868;2023-02-01T04:42:05;4.90;;;0.40;;
68398;SDS011;56258;52.196;13.868;2023-02-01T04:44:32;4.78;;;0.45;;
68398;SDS011;56258;52.196;13.868;2023-02-01T04:46:58;4.63;;;0.50;;
68398;SDS011;56258;52.196;13.868;2023-02-01T04:49:25;4.45;;;0.40;;
68398;SDS011;56258;52.196;13.868;2023-02-01T04:51:52;5.37;;;0.40;;
68398;SDS011;56258;52.196;13.868;2023-02-01T04:54:19;4.60;;;0.50;;
68398;SDS011;56258;52.196;13.868;2023-02-01T04:56:46;4.63;;;0.40;;
68398;SDS011;56258;52.196;13.868;2023-02-01T04:59:12;4.82;;;0.40;;
68398;SDS011;56258;52.196;13.868;2023-02-01T05:01:39;4.30;;;0.50;;
68398;SDS011;56258;52.196;13.868;2023-02-01T05:04:06;5.77;;;0.60;;
68398;SDS011;56258;52.196;13.868;2023-02-01T05:06:32;3.58;;;0.30;;
68398;SDS011;56258;52.196;13.868;2023-02-01T05:08:59;4.30;;;0.47;;
68398;SDS011;56258;52.196;13.868;2023-02-01T05:11:25;5.00;;;0.40;;
68398;SDS011;56258;52.196;13.868;2023-02-01T05:14:11;4.82;;;0.40;;
68398;SDS011;56258;52.196;13.868;2023-02-01T05:16:37;3.80;;;0.30;;
68398;SDS011;56258;52.196;13.868;2023-02-01T05:19:04;4.90;;;0.40;;
68398;SDS011;56258;52.196;13.868;2023-02-01T05:21:30;4.57;;;0.40;;
68398;SDS011;56258;52.196;13.868;2023-02-01T05:23:57;4.68;;;0.40;;
68398;SDS011;56258;52.196;13.868;2023-02-01T05:26:36;4.18;;;0.38;;
68398;SDS011;56258;52.196;13.868;2023-02-01T05:29:04;5.40;;;0.30;;
68398;SDS011;56258;52.196;13.868;2023-02-01T05:31:31;4.75;;;0.45;;
68398;SDS011;56258;52.196;13.868;2023-02-01T05:33:58;4.88;;;0.30;;
68398;SDS011;56258;52.196;13.868;2023-02-01T05:36:25;4.38;;;0.50;;
68398;SDS011;56258;52.196;13.868;2023-02-01T05:38:51;5.05;;;0.47;;
68398;SDS011;56258;52.196;13.868;2023-02-01T05:41:18;5.80;;;0.30;;
68398;SDS011;56258;52.196;13.868;2023-02-01T05:43:45;3.88;;;0.30;;
68398;SDS011;56258;52.196;13.868;2023-02-01T05:46:11;4.95;;;0.40;;
68398;SDS011;56258;52.196;13.868;2023-02-01T05:48:39;4.55;;;0.30;;
68398;SDS011;56258;52.196;13.868;2023-02-01T05:51:07;4.10;;;0.40;;
68398;SDS011;56258;52.196;13.868;2023-02-01T05:53:34;3.83;;;0.30;;
68398;SDS011;56258;52.196;13.868;2023-02-01T05:56:00;4.85;;;0.32;;
68398;SDS011;56258;52.196;13.868;2023-02-01T05:58:27;4.70;;;0.40;;
68398;SDS011;56258;52.196;13.868;2023-02-01T06:00:53;5.20;;;0.30;;
68398;SDS011;56258;52.196;13.868;2023-02-01T06:03:19;5.18;;;0.40;;
68398;SDS011;56258;52.196;13.868;2023-02-01T06:05:47;5.25;;;0.57;;
68398;SDS011;56258;52.196;13.868;2023-02-01T06:08:14;4.00;;;0.30;;
68398;SDS011;56258;52.196;13.868;2023-02-01T06:10:41;4.88;;;0.38;;
68398;SDS011;56258;52.196;13.868;2023-02-01T06:13:07;4.13;;;0.40;;
68398;SDS011;56258;52.196;13.868;2023-02-01T06:15:34;5.07;;;0.50;;
68398;SDS011;56258;52.196;13.868;2023-02-01T06:18:03;4.97;;;0.40;;
68398;SDS011;56258;52.196;13.868;2023-02-01T06:20:30;4.70;;;0.50;;
68398;SDS011;56258;52.196;13.868;2023-02-01T06:22:57;4.88;;;0.40;;
68398;SDS011;56258;52.196;13.868;2023-02-01T06:25:23;4.07;;;0.40;;
68398;SDS011;56258;52.196;13.868;2023-02-01T06:27:50;4.03;;;0.30;;
68398;SDS011;56258;52.196;13.868;2023-02-01T06:30:17;6.28;;;0.70;;
68398;SDS011;56258;52.196;13.868;2023-02-01T06:32:44;4.95;;;0.40;;
68398;SDS011;56258;52.196;13.868;2023-02-01T06:35:10;5.32;;;0.40;;
68398;SDS011;56258;52.196;13.868;2023-02-01T06:37:42;4.33;;;0.40;;
68398;SDS011;56258;52.196;13.868;2023-02-01T06:43:56;4.45;;;0.45;;
68398;SDS011;56258;52.196;13.868;2023-02-01T06:46:22;5.15;;;0.40;;
68398;SDS011;56258;52.196;13.868;2023-02-01T06:48:49;5.78;;;0.50;;
68398;SDS011;56258;52.196;13.868;2023-02-01T06:51:21;4.60;;;0.43;;
68398;SDS011;56258;52.196;13.868;2023-02-01T06:53:51;4.53;;;0.40;;
68398;SDS011;56258;52.196;13.868;2023-02-01T06:56:18;4.22;;;0.40;;
68398;SDS011;56258;52.196;13.868;2023-02-01T06:58:46;4.57;;;0.40;;
68398;SDS011;56258;52.196;13.868;2023-02-01T07:01:13;6.57;;;0.43;;
68398;SDS011;56258;52.196;13.868;2023-02-01T07:03:46;3.47;;;0.30;;
68398;SDS011;56258;52.196;13.868;2023-02-01T07:06:13;4.88;;;0.45;;
68398;SDS011;56258;52.196;13.868;2023-02-01T07:08:40;5.68;;;0.40;;
68398;SDS011;56258;52.196;13.868;2023-02-01T07:11:08;4.13;;;0.30;;
68398;SDS011;56258;52.196;13.868;2023-02-01T07:13:37;4.65;;;0.30;;
68398;SDS011;56258;52.196;13.868;2023-02-01T07:16:06;4.67;;;0.30;;
68398;SDS011;56258;52.196;13.868;2023-02-01T07:18:37;5.68;;;0.50;;
68398;SDS011;56258;52.196;13.868;2023-02-01T07:21:04;4.65;;;0.40;;
68398;SDS011;56258;52.196;13.868;2023-02-01T07:23:31;4.97;;;0.43;;
68398;SDS011;56258;52.196;13.868;2023-02-01T07:25:59;5.07;;;0.40;;
68398;SDS011;56258;52.196;13.868;2023-02-01T07:28:30;5.23;;;0.40;;
68398;SDS011;56258;52.196;13.868;2023-02-01T07:31:05;4.90;;;0.40;;
68398;SDS011;56258;52.196;13.868;2023-02-01T07:33:32;5.10;;;0.40;;
68398;SDS011;56258;52.196;13.868;2023-02-01T07:36:00;5.03;;;0.40;;
68398;SDS011;56258;52.196;13.868;2023-02-01T07:38:31;4.63;;;0.50;;
68398;SDS011;56258;52.196;13.868;2023-02-01T07:40:58;5.47;;;0.40;;
68398;SDS011;56258;52.196;13.868;2023-02-01T07:43:27;6.00;;;0.50;;
68398;SDS011;56258;52.196;13.868;2023-02-01T07:45:54;4.03;;;0.30;;
68398;SDS011;56258;52.196;13.868;2023-02-01T07:48:22;5.63;;;0.50;;
68398;SDS011;56258;52.196;13.868;2023-02-01T07:53:25;4.70;;;0.40;;
68398;SDS011;56258;52.196;13.868;2023-02-01T07:55:52;5.40;;;0.47;;
68398;SDS011;56258;52.196;13.868;2023-02-01T07:58:19;4.72;;;0.35;;
68398;SDS011;56258;52.196;13.868;2023-02-01T08:00:45;3.75;;;0.38;;
68398;SDS011;56258;52.196;13.868;2023-02-01T08:03:30;5.93;;;0.40;;
68398;SDS011;56258;52.196;13.868;2023-02-01T08:05:57;5.47;;;0.40;;
68398;SDS011;56258;52.196;13.868;2023-02-01T08:08:24;4.78;;;0.40;;
68398;SDS011;56258;52.196;13.868;2023-02-01T08:10:50;4.03;;;0.50;;
68398;SDS011;56258;52.196;13.868;2023-02-01T08:13:17;5.32;;;0.50;;
68398;SDS011;56258;52.196;13.868;2023-02-01T08:15:44;6.43;;;0.60;;
68398;SDS011;56258;52.196;13.868;2023-02-01T08:18:10;4.50;;;0.50;;
68398;SDS011;56258;52.196;13.868;2023-02-01T08:20:37;4.60;;;0.47;;
68398;SDS011;56258;52.196;13.868;2023-02-01T08:23:07;6.22;;;0.47;;
68398;SDS011;56258;52.196;13.868;2023-02-01T08:25:35;4.60;;;0.50;;
68398;SDS011;56258;52.196;13.868;2023-02-01T08:28:02;6.00;;;0.57;;
68398;SDS011;56258;52.196;13.868;2023-02-01T08:30:29;6.10;;;0.50;;
68398;SDS011;56258;52.196;13.868;2023-02-01T08:32:56;5.55;;;0.45;;
68398;SDS011;56258;52.196;13.868;2023-02-01T08:35:23;3.85;;;0.40;;
68398;SDS011;56258;52.196;13.868;2023-02-01T08:38:07;5.38;;;0.32;;
68398;SDS011;56258;52.196;13.868;2023-02-01T08:40:34;4.70;;;0.40;;
68398;SDS011;56258;52.196;13.868;2023-02-01T08:43:01;4.57;;;0.40;;
68398;SDS011;56258;52.196;13.868;2023-02-01T08:45:28;4.65;;;0.65;;
68398;SDS011;56258;52.196;13.868;2023-02-01T08:47:56;5.30;;;0.43;;
68398;SDS011;56258;52.196;13.868;2023-02-01T08:50:24;4.32;;;0.40;;
68398;SDS011;56258;52.196;13.868;2023-02-01T08:52:52;4.97;;;0.52;;
68398;SDS011;56258;52.196;13.868;2023-02-01T08:55:20;6.00;;;0.50;;
68398;SDS011;56258;52.196;13.868;2023-02-01T08:57:47;5.07;;;0.40;;
68398;SDS011;56258;52.196;13.868;2023-02-01T09:00:15;5.32;;;0.60;;
68398;SDS011;56258;52.196;13.868;2023-02-01T09:02:43;4.15;;;0.38;;
68398;SDS011;56258;52.196;13.868;2023-02-01T09:05:10;5.03;;;0.40;;
68398;SDS011;56258;52.196;13.868;2023-02-01T09:07:38;4.47;;;0.40;;
68398;SDS011;56258;52.196;13.868;2023-02-01T09:10:04;6.22;;;0.57;;
68398;SDS011;56258;52.196;13.868;2023-02-01T09:12:32;4.28;;;0.40;;
68398;SDS011;56258;52.196;13.868;2023-02-01T09:14:59;3.88;;;0.30;;
68398;SDS011;56258;52.196;13.868;2023-02-01T09:17:27;4.68;;;0.40;;
68398;SDS011;56258;52.196;13.868;2023-02-01T09:19:55;5.03;;;0.43;;
68398;SDS011;56258;52.196;13.868;2023-02-01T09:22:22;4.18;;;0.40;;
68398;SDS011;56258;52.196;13.868;2023-02-01T09:24:49;4.72;;;0.45;;
68398;SDS011;56258;52.196;13.868;2023-02-01T09:27:15;5.03;;;0.52;;
68398;SDS011;56258;52.196;13.868;2023-02-01T09:29:42;3.95;;;0.47;;
68398;SDS011;56258;52.196;13.868;2023-02-01T09:32:09;5.97;;;0.50;;
68398;SDS011;56258;52.196;13.868;2023-02-01T09:34:35;5.45;;;0.65;;
68398;SDS011;56258;52.196;13.868;2023-02-01T09:37:02;4.80;;;0.47;;
68398;SDS011;56258;52.196;13.868;2023-02-01T09:39:29;7.80;;;0.77;;
68398;SDS011;56258;52.196;13.868;2023-02-01T09:47:16;3.80;;;0.30;;
68398;SDS011;56258;52.196;13.868;2023-02-01T09:49:48;3.97;;;0.30;;
68398;SDS011;56258;52.196;13.868;2023-02-01T09:52:16;4.22;;;0.50;;
68398;SDS011;56258;52.196;13.868;2023-02-01T09:54:50;4.72;;;0.40;;
68398;SDS011;56258;52.196;13.868;2023-02-01T09:57:24;6.90;;;0.43;;
68398;SDS011;56258;52.196;13.868;2023-02-01T09:59:59;3.83;;;0.40;;
68398;SDS011;56258;52.196;13.868;2023-02-01T10:02:30;3.50;;;0.30;;
68398;SDS011;56258;52.196;13.868;2023-02-01T10:05:05;3.38;;;0.30;;
68398;SDS011;56258;52.196;13.868;2023-02-01T10:07:41;3.28;;;0.30;;
68398;SDS011;56258;52.196;13.868;2023-02-01T10:12:59;4.10;;;0.40;;
68398;SDS011;56258;52.196;13.868;2023-02-01T10:26:51;4.75;;;0.47;;
68398;SDS011;56258;52.196;13.868;2023-02-01T10:29:36;4.03;;;0.40;;
68398;SDS011;56258;52.196;13.868;2023-02-01T10:32:24;2.97;;;0.30;;
68398;SDS011;56258;52.196;13.868;2023-02-01T10:34:57;4.45;;;0.30;;
68398;SDS011;56258;52.196;13.868;2023-02-01T10:37:30;4.00;;;0.40;;
68398;SDS011;56258;52.196;13.868;2023-02-01T10:40:01;3.33;;;0.30;;
68398;SDS011;56258;52.196;13.868;2023-02-01T10:42:39;3.75;;;0.30;;
68398;SDS011;56258;52.196;13.868;2023-02-01T10:45:06;2.42;;;0.30;;
68398;SDS011;56258;52.196;13.868;2023-02-01T10:47:39;3.65;;;0.43;;
68398;SDS011;56258;52.196;13.868;2023-02-01T10:52:51;4.00;;;0.30;;
68398;SDS011;56258;52.196;13.868;2023-02-01T10:57:56;2.92;;;0.30;;
68398;SDS011;56258;52.196;13.868;2023-02-01T11:00:25;3.75;;;0.50;;
68398;SDS011;56258;52.196;13.868;2023-02-01T11:02:52;3.60;;;0.27;;
68398;SDS011;56258;52.196;13.868;2023-02-01T11:05:20;3.47;;;0.30;;
68398;SDS011;56258;52.196;13.868;2023-02-01T11:07:49;2.85;;;0.30;;
68398;SDS011;56258;52.196;13.868;2023-02-01T11:13:07;4.20;;;0.35;;
68398;SDS011;56258;52.196;13.868;2023-02-01T11:15:45;3.60;;;0.30;;
68398;SDS011;56258;52.196;13.868;2023-02-01T11:18:29;4.35;;;0.30;;
68398;SDS011;56258;52.196;13.868;2023-02-01T11:20:58;3.08;;;0.30;;
68398;SDS011;56258;52.196;13.868;2023-02-01T11:23:26;3.15;;;0.22;;
68398;SDS011;56258;52.196;13.868;2023-02-01T11:25:55;3.13;;;0.40;;
68398;SDS011;56258;52.196;13.868;2023-02-01T11:28:33;3.33;;;0.30;;
68398;SDS011;56258;52.196;13.868;2023-02-01T11:31:04;3.67;;;0.20;;
68398;SDS011;56258;52.196;13.868;2023-02-01T11:33:39;3.00;;;0.30;;
68398;SDS011;56258;52.196;13.868;2023-02-01T11:36:14;4.28;;;0.30;;
68398;SDS011;56258;52.196;13.868;2023-02-01T11:38:52;2.97;;;0.20;;
68398;SDS011;56258;52.196;13.868;2023-02-01T11:41:23;2.97;;;0.30;;
68398;SDS011;56258;52.196;13.868;2023-02-01T11:43:52;2.35;;;0.28;;
68398;SDS011;56258;52.196;13.868;2023-02-01T11:46:34;2.92;;;0.30;;
68398;SDS011;56258;52.196;13.868;2023-02-01T11:49:21;2.63;;;0.30;;
68398;SDS011;56258;52.196;13.868;2023-02-01T11:51:52;3.63;;;0.40;;
68398;SDS011;56258;52.196;13.868;2023-02-01T11:54:40;3.10;;;0.30;;
68398;SDS011;56258;52.196;13.868;2023-02-01T12:09:13;2.73;;;0.20;;
68398;SDS011;56258;52.196;13.868;2023-02-01T12:11:20;3.25;;;0.20;;
68398;SDS011;56258;52.196;13.868;2023-02-01T12:20:27;3.47;;;0.30;;
68398;SDS011;56258;52.196;13.868;2023-02-01T12:25:29;2.90;;;0.20;;
68398;SDS011;56258;52.196;13.868;2023-02-01T12:38:48;3.15;;;0.30;;
68398;SDS011;56258;52.196;13.868;2023-02-01T12:43:54;2.50;;;0.20;;
68398;SDS011;56258;52.196;13.868;2023-02-01T12:49:34;2.43;;;0.20;;
68398;SDS011;56258;52.196;13.868;2023-02-01T12:53:02;2.58;;;0.20;;
68398;SDS011;56258;52.196;13.868;2023-02-01T12:55:25;3.05;;;0.25;;
68398;SDS011;56258;52.196;13.868;2023-02-01T12:58:18;2.45;;;0.20;;
68398;SDS011;56258;52.196;13.868;2023-02-01T13:00:52;3.75;;;0.20;;
68398;SDS011;56258;52.196;13.868;2023-02-01T13:03:38;2.97;;;0.20;;
68398;SDS011;56258;52.196;13.868;2023-02-01T13:06:17;3.50;;;0.25;;
68398;SDS011;56258;52.196;13.868;2023-02-01T13:08:56;4.25;;;0.30;;
68398;SDS011;56258;52.196;13.868;2023-02-01T13:11:42;4.78;;;0.43;;
68398;SDS011;56258;52.196;13.868;2023-02-01T13:14:32;4.88;;;0.43;;
68398;SDS011;56258;52.196;13.868;2023-02-01T13:17:05;3.57;;;0.20;;
68398;SDS011;56258;52.196;13.868;2023-02-01T13:22:25;6.05;;;0.32;;
68398;SDS011;56258;52.196;13.868;2023-02-01T13:24:59;4.88;;;0.40;;
68398;SDS011;56258;52.196;13.868;2023-02-01T13:27:29;2.65;;;0.30;;
68398;SDS011;56258;52.196;13.868;2023-02-01T13:30:01;2.63;;;0.20;;
68398;SDS011;56258;52.196;13.868;2023-02-01T13:36:16;2.95;;;0.20;;
68398;SDS011;56258;52.196;13.868;2023-02-01T13:44:30;3.33;;;0.30;;
68398;SDS011;56258;52.196;13.868;2023-02-01T13:47:01;3.13;;;0.20;;
68398;SDS011;56258;52.196;13.868;2023-02-01T13:49:30;2.78;;;0.25;;
68398;SDS011;56258;52.196;13.868;2023-02-01T13:52:03;2.90;;;0.20;;
68398;SDS011;56258;52.196;13.868;2023-02-01T13:56:59;4.63;;;0.27;;
68398;SDS011;56258;52.196;13.868;2023-02-01T14:05:06;2.58;;;0.20;;
68398;SDS011;56258;52.196;13.868;2023-02-01T14:07:36;3.38;;;0.30;;
68398;SDS011;56258;52.196;13.868;2023-02-01T14:23:58;4.87;;;0.30;;
68398;SDS011;56258;52.196;13.868;2023-02-01T14:26:52;4.43;;;0.35;;
68398;SDS011;56258;52.196;13.868;2023-02-01T14:47:50;1.48;;;0.20;;
68398;SDS011;56258;52.196;13.868;2023-02-01T14:55:42;2.72;;;0.20;;
68398;SDS011;56258;52.196;13.868;2023-02-01T14:58:21;2.63;;;0.30;;
68398;SDS011;56258;52.196;13.868;2023-02-01T15:01:23;2.42;;;0.20;;
68398;SDS011;56258;52.196;13.868;2023-02-01T15:04:11;3.10;;;0.30;;
68398;SDS011;56258;52.196;13.868;2023-02-01T15:06:48;2.67;;;0.20;;
68398;SDS011;56258;52.196;13.868;2023-02-01T15:09:28;2.67;;;0.20;;
68398;SDS011;56258;52.196;13.868;2023-02-01T15:12:02;2.42;;;0.20;;
68398;SDS011;56258;52.196;13.868;2023-02-01T15:14:34;2.45;;;0.30;;
68398;SDS011;56258;52.196;13.868;2023-02-01T15:17:15;2.83;;;0.30;;
68398;SDS011;56258;52.196;13.868;2023-02-01T15:19:57;3.47;;;0.30;;
68398;SDS011;56258;52.196;13.868;2023-02-01T15:22:34;2.67;;;0.20;;
68398;SDS011;56258;52.196;13.868;2023-02-01T15:25:01;2.90;;;0.20;;
68398;SDS011;56258;52.196;13.868;2023-02-01T15:27:29;3.63;;;0.20;;
68398;SDS011;56258;52.196;13.868;2023-02-01T15:30:07;3.80;;;0.20;;
68398;SDS011;56258;52.196;13.868;2023-02-01T15:32:36;4.40;;;0.20;;
68398;SDS011;56258;52.196;13.868;2023-02-01T15:35:05;4.45;;;0.38;;
68398;SDS011;56258;52.196;13.868;2023-02-01T15:37:52;5.65;;;0.30;;
68398;SDS011;56258;52.196;13.868;2023-02-01T15:40:19;4.65;;;0.30;;
68398;SDS011;56258;52.196;13.868;2023-02-01T15:42:52;5.20;;;0.43;;
68398;SDS011;56258;52.196;13.868;2023-02-01T15:45:22;7.30;;;0.52;;
68398;SDS011;56258;52.196;13.868;2023-02-01T15:47:54;2.63;;;0.22;;
68398;SDS011;56258;52.196;13.868;2023-02-01T15:50:23;3.00;;;0.20;;
68398;SDS011;56258;52.196;13.868;2023-02-01T15:52:52;3.75;;;0.20;;
68398;SDS011;56258;52.196;13.868;2023-02-01T15:55:23;3.27;;;0.20;;
68398;SDS011;56258;52.196;13.868;2023-02-01T15:58:06;3.60;;;0.30;;
68398;SDS011;56258;52.196;13.868;2023-02-01T16:00:44;2.72;;;0.20;;
68398;SDS011;56258;52.196;13.868;2023-02-01T16:06:31;3.92;;;0.30;;
68398;SDS011;56258;52.196;13.868;2023-02-01T16:09:02;2.73;;;0.20;;
68398;SDS011;56258;52.196;13.868;2023-02-01T16:11:41;6.07;;;0.30;;
68398;SDS011;56258;52.196;13.868;2023-02-01T16:14:28;6.47;;;0.43;;
68398;SDS011;56258;52.196;13.868;2023-02-01T16:16:57;5.30;;;0.30;;
68398;SDS011;56258;52.196;13.868;2023-02-01T16:19:24;5.88;;;0.50;;
68398;SDS011;56258;52.196;13.868;2023-02-01T16:21:54;5.07;;;0.50;;
68398;SDS011;56258;52.196;13.868;2023-02-01T16:24:22;5.90;;;0.65;;
68398;SDS011;56258;52.196;13.868;2023-02-01T16:26:52;5.50;;;0.63;;
68398;SDS011;56258;52.196;13.868;2023-02-01T16:29:18;7.50;;;0.65;;
68398;SDS011;56258;52.196;13.868;2023-02-01T16:31:47;6.78;;;0.60;;
68398;SDS011;56258;52.196;13.868;2023-02-01T16:34:15;4.77;;;0.60;;
68398;SDS011;56258;52.196;13.868;2023-02-01T16:36:49;9.20;;;0.70;;
68398;SDS011;56258;52.196;13.868;2023-02-01T16:39:19;8.55;;;0.77;;
68398;SDS011;56258;52.196;13.868;2023-02-01T16:41:46;6.50;;;0.68;;
68398;SDS011;56258;52.196;13.868;2023-02-01T16:44:13;6.38;;;0.70;;
68398;SDS011;56258;52.196;13.868;2023-02-01T16:46:41;6.40;;;0.80;;
68398;SDS011;56258;52.196;13.868;2023-02-01T16:49:21;5.65;;;0.60;;
68398;SDS011;56258;52.196;13.868;2023-02-01T16:51:50;5.47;;;0.60;;
68398;SDS011;56258;52.196;13.868;2023-02-01T16:54:21;8.50;;;0.73;;
68398;SDS011;56258;52.196;13.868;2023-02-01T16:56:48;6.30;;;0.80;;
68398;SDS011;56258;52.196;13.868;2023-02-01T16:59:15;5.37;;;0.60;;
68398;SDS011;56258;52.196;13.868;2023-02-01T17:01:42;6.25;;;0.68;;
68398;SDS011;56258;52.196;13.868;2023-02-01T17:04:09;6.90;;;0.93;;
68398;SDS011;56258;52.196;13.868;2023-02-01T17:06:36;6.90;;;0.70;;
68398;SDS011;56258;52.196;13.868;2023-02-01T17:09:04;6.57;;;0.80;;
68398;SDS011;56258;52.196;13.868;2023-02-01T17:11:31;6.63;;;0.70;;
68398;SDS011;56258;52.196;13.868;2023-02-01T17:14:08;7.50;;;1.00;;
68398;SDS011;56258;52.196;13.868;2023-02-01T17:16:41;8.45;;;1.02;;
68398;SDS011;56258;52.196;13.868;2023-02-01T17:19:14;9.23;;;1.20;;
68398;SDS011;56258;52.196;13.868;2023-02-01T17:21:50;5.82;;;0.95;;
68398;SDS011;56258;52.196;13.868;2023-02-01T17:24:23;9.73;;;1.23;;
68398;SDS011;56258;52.196;13.868;2023-02-01T17:27:13;8.63;;;1.20;;
68398;SDS011;56258;52.196;13.868;2023-02-01T17:29:40;9.20;;;1.30;;
68398;SDS011;56258;52.196;13.868;2023-02-01T17:32:16;8.52;;;1.30;;
68398;SDS011;56258;52.196;13.868;2023-02-01T17:34:46;8.00;;;1.10;;
68398;SDS011;56258;52.196;13.868;2023-02-01T17:37:29;10.07;;;1.47;;
68398;SDS011;56258;52.196;13.868;2023-02-01T17:39:58;10.00;;;1.58;;
68398;SDS011;56258;52.196;13.868;2023-02-01T17:42:26;7.82;;;1.20;;
68398;SDS011;56258;52.196;13.868;2023-02-01T17:44:59;8.77;;;1.50;;
68398;SDS011;56258;52.196;13.868;2023-02-01T17:47:27;9.27;;;1.20;;
68398;SDS011;56258;52.196;13.868;2023-02-01T17:49:54;7.87;;;1.27;;